createdAt,value
2023-01-19T00:02:14.177Z,4.47
2023-01-19T00:05:17.317Z,4.38
2023-01-19T00:08:22.635Z,4.43
2023-01-19T00:11:24.970Z,4.42
2023-01-19T00:14:31.854Z,4.40
2023-01-19T00:17:38.297Z,4.38
2023-01-19T00:20:42.451Z,4.36
2023-01-19T00:23:52.827Z,4.35
2023-01-19T00:27:01.717Z,4.34
2023-01-19T00:30:07.410Z,4.33
2023-01-19T00:33:20.311Z,4.29
2023-01-19T00:36:25.526Z,4.28
2023-01-19T00:39:35.072Z,4.22
2023-01-19T00:42:42.630Z,4.16
2023-01-19T00:45:51.473Z,4.14
2023-01-19T00:48:56.465Z,4.12
2023-01-19T00:51:58.860Z,4.14
2023-01-19T00:55:01.161Z,4.09
2023-01-19T00:58:04.854Z,4.04
2023-01-19T01:01:10.097Z,3.98
2023-01-19T01:04:15.080Z,3.96
2023-01-19T01:07:17.273Z,3.93
2023-01-19T01:10:26.565Z,3.91
2023-01-19T01:13:34.683Z,3.94
2023-01-19T01:16:37.276Z,3.91
2023-01-19T01:19:42.384Z,3.86
2023-01-19T01:22:53.205Z,3.86
2023-01-19T01:25:55.766Z,3.85
2023-01-19T01:28:59.756Z,3.82
2023-01-19T01:32:02.765Z,3.79
2023-01-19T01:35:16.575Z,3.81
2023-01-19T01:38:22.384Z,3.78
2023-01-19T01:41:26.072Z,3.77
2023-01-19T01:44:54.332Z,3.77
2023-01-19T01:48:14.753Z,3.76
2023-01-19T01:51:40.884Z,3.73
2023-01-19T01:54:47.691Z,3.69
2023-01-19T01:57:59.383Z,3.67
2023-01-19T02:01:24.479Z,3.63
2023-01-19T02:04:26.882Z,3.63
2023-01-19T02:08:13.959Z,3.63
2023-01-19T02:11:35.653Z,3.64
2023-01-19T02:14:41.977Z,3.59
2023-01-19T02:17:50.946Z,3.60
2023-01-19T02:21:24.232Z,3.56
2023-01-19T02:24:32.063Z,3.58
2023-01-19T02:27:34.584Z,3.59
2023-01-19T02:30:41.283Z,3.57
2023-01-19T02:33:43.869Z,3.53
2023-01-19T02:36:51.078Z,3.52
2023-01-19T02:39:59.209Z,3.49
2023-01-19T02:43:04.593Z,3.47
2023-01-19T02:46:07.283Z,3.44
2023-01-19T02:49:11.089Z,3.43
2023-01-19T02:52:19.522Z,3.43
2023-01-19T02:55:26.439Z,3.41
2023-01-19T02:59:07.647Z,3.37
2023-01-19T03:02:30.826Z,3.35
2023-01-19T03:05:51.892Z,3.31
2023-01-19T03:09:16.280Z,3.31
2023-01-19T03:12:27.492Z,3.28
2023-01-19T03:15:38.003Z,3.27
2023-01-19T03:18:45.663Z,3.27
2023-01-19T03:21:57.893Z,3.28
2023-01-19T03:25:03.351Z,3.29
2023-01-19T03:28:08.582Z,3.31
2023-01-19T03:31:29.430Z,3.31
2023-01-19T03:34:32.767Z,3.28
2023-01-19T03:37:39.320Z,3.26
2023-01-19T03:40:45.817Z,3.18
2023-01-19T03:43:52.563Z,3.14
2023-01-19T03:46:58.217Z,3.15
2023-01-19T03:50:09.304Z,3.15
2023-01-19T03:53:23.940Z,3.13
2023-01-19T03:56:32.160Z,3.13
2023-01-19T03:59:40.390Z,3.13
2023-01-19T04:02:48.308Z,3.15
2023-01-19T04:05:50.904Z,3.14
2023-01-19T04:08:54.065Z,3.14
2023-01-19T04:12:06.447Z,3.15
2023-01-19T04:15:08.763Z,3.14
2023-01-19T04:18:20.351Z,3.13
2023-01-19T04:21:25.552Z,3.13
2023-01-19T04:24:28.224Z,3.13
2023-01-19T04:27:30.513Z,3.11
2023-01-19T04:30:37.994Z,3.08
2023-01-19T04:33:44.404Z,3.05
2023-01-19T04:36:51.219Z,3.04
2023-01-19T04:39:56.421Z,3.01
2023-01-19T04:42:59.012Z,2.98
2023-01-19T04:46:04.237Z,3.00
2023-01-19T04:49:06.714Z,2.94
2023-01-19T04:52:12.136Z,2.92
2023-01-19T04:55:15.077Z,2.88
2023-01-19T04:58:19.293Z,2.90
2023-01-19T05:01:23.689Z,2.89
2023-01-19T05:04:26.134Z,2.91
2023-01-19T05:07:30.969Z,2.89
2023-01-19T05:10:43.201Z,2.91
2023-01-19T05:13:45.548Z,2.91
2023-01-19T05:16:50.711Z,2.93
2023-01-19T05:20:01.979Z,2.94
2023-01-19T05:23:05.710Z,2.93
2023-01-19T05:26:10.304Z,2.98
2023-01-19T05:29:15.002Z,3.04
2023-01-19T05:32:17.210Z,3.06
2023-01-19T05:35:35.407Z,3.07
2023-01-19T05:38:38.230Z,3.08
2023-01-19T05:41:45.480Z,3.09
2023-01-19T05:44:52.962Z,3.09
2023-01-19T05:47:58.187Z,3.11
2023-01-19T05:51:01.548Z,3.14
2023-01-19T05:54:08.391Z,3.16
2023-01-19T05:57:15.389Z,3.14
2023-01-19T06:00:18.363Z,3.18
2023-01-19T06:03:20.619Z,3.21
2023-01-19T06:06:25.646Z,3.20
2023-01-19T06:09:29.171Z,3.17
2023-01-19T06:12:34.512Z,3.14
2023-01-19T06:15:39.649Z,3.13
2023-01-19T06:18:49.406Z,3.15
2023-01-19T06:21:55.129Z,3.16
2023-01-19T06:25:04.903Z,3.20
2023-01-19T06:28:11.886Z,3.22
2023-01-19T06:31:19.504Z,3.24
2023-01-19T06:34:21.969Z,3.23
2023-01-19T06:37:27.652Z,3.25
2023-01-19T06:40:31.731Z,3.29
2023-01-19T06:43:40.102Z,3.39
2023-01-19T06:46:44.387Z,3.43
2023-01-19T06:49:49.052Z,3.48
2023-01-19T06:52:51.854Z,3.50
2023-01-19T06:55:56.671Z,3.57
2023-01-19T06:59:06.911Z,3.57
2023-01-19T07:02:27.426Z,3.57
2023-01-19T07:05:30.719Z,3.58
2023-01-19T07:08:40.151Z,3.61
2023-01-19T07:11:45.122Z,3.63
2023-01-19T07:14:51.118Z,3.62
2023-01-19T07:18:00.925Z,3.68
2023-01-19T07:21:04.539Z,3.70
2023-01-19T07:24:06.997Z,3.73
2023-01-19T07:27:11.820Z,3.77
2023-01-19T07:30:16.504Z,3.85
2023-01-19T07:33:28.083Z,3.86
2023-01-19T07:36:41.073Z,3.88
2023-01-19T07:39:54.165Z,3.86
2023-01-19T07:43:04.472Z,3.88
2023-01-19T07:46:09.393Z,3.91
2023-01-19T07:49:12.729Z,3.94
2023-01-19T07:52:17.010Z,3.92
2023-01-19T07:55:25.741Z,3.88
2023-01-19T07:58:37.725Z,3.88
2023-01-19T08:01:42.893Z,3.86
2023-01-19T08:04:49.041Z,3.91
2023-01-19T08:07:53.325Z,3.94
2023-01-19T08:10:56.508Z,3.96
2023-01-19T08:13:59.896Z,4.00
2023-01-19T08:17:03.057Z,4.02
2023-01-19T08:20:06.726Z,4.07
2023-01-19T08:23:18.188Z,4.15
2023-01-19T08:26:34.108Z,4.15
2023-01-19T08:29:45.831Z,4.19
2023-01-19T08:32:48.173Z,4.25
2023-01-19T08:35:54.513Z,4.31
2023-01-19T08:38:59.532Z,4.34
2023-01-19T08:42:05.805Z,4.38
2023-01-19T08:45:09.469Z,4.41
2023-01-19T08:48:15.870Z,4.42
2023-01-19T08:51:19.080Z,4.45
2023-01-19T08:54:21.963Z,4.50
2023-01-19T08:57:24.269Z,4.51
2023-01-19T09:00:27.321Z,4.52
2023-01-19T09:03:36.212Z,4.52
2023-01-19T09:06:38.562Z,4.52
2023-01-19T09:09:45.808Z,4.53
2023-01-19T09:12:52.276Z,4.47
2023-01-19T09:16:00.719Z,4.47
2023-01-19T09:19:04.425Z,4.49
2023-01-19T09:22:09.058Z,4.50
2023-01-19T09:25:15.349Z,4.54
2023-01-19T09:28:18.040Z,4.54
2023-01-19T09:31:20.603Z,4.58
2023-01-19T09:34:25.464Z,4.64
2023-01-19T09:37:28.991Z,4.72
2023-01-19T09:40:34.069Z,4.77
2023-01-19T09:44:00.455Z,4.82
2023-01-19T09:47:17.377Z,4.77
2023-01-19T09:50:27.862Z,4.80
2023-01-19T09:53:46.845Z,4.75
2023-01-19T09:56:55.832Z,4.76
2023-01-19T10:00:00.804Z,4.76
2023-01-19T10:03:16.400Z,4.71
2023-01-19T10:06:28.601Z,4.62
2023-01-19T10:09:47.311Z,4.51
2023-01-19T10:13:21.179Z,4.41
2023-01-19T10:16:37.834Z,4.31
2023-01-19T10:19:54.924Z,4.24
2023-01-19T10:23:10.501Z,4.17
2023-01-19T10:26:17.532Z,4.13
2023-01-19T10:29:37.713Z,4.07
2023-01-19T10:32:45.713Z,4.06
2023-01-19T10:35:51.038Z,4.01
2023-01-19T10:38:55.984Z,3.96
2023-01-19T10:42:07.209Z,3.93
2023-01-19T10:45:23.934Z,3.91
2023-01-19T10:48:39.928Z,3.82
2023-01-19T10:51:49.787Z,3.80
2023-01-19T10:55:02.589Z,3.79
2023-01-19T10:58:06.584Z,3.80
2023-01-19T11:01:25.210Z,3.79
2023-01-19T11:04:32.823Z,3.75
2023-01-19T11:07:44.217Z,3.71
2023-01-19T11:11:15.492Z,3.70
2023-01-19T11:14:26.580Z,3.72
2023-01-19T11:17:29.064Z,3.68
2023-01-19T11:21:01.635Z,3.73
2023-01-19T11:24:16.525Z,3.72
2023-01-19T11:27:28.455Z,3.70
2023-01-19T11:30:36.772Z,3.79
2023-01-19T11:33:51.045Z,3.78
2023-01-19T11:37:01.491Z,3.78
2023-01-19T11:40:15.689Z,3.67
2023-01-19T11:43:49.068Z,3.70
2023-01-19T11:47:19.744Z,3.73
2023-01-19T11:50:39.873Z,3.76
2023-01-19T11:53:47.349Z,3.81
2023-01-19T11:56:52.167Z,3.86
2023-01-19T12:00:03.552Z,3.93
2023-01-19T12:03:20.952Z,4.07
2023-01-19T12:06:28.082Z,4.15
2023-01-19T12:09:48.997Z,4.14
2023-01-19T12:12:58.222Z,3.95
2023-01-19T12:16:06.780Z,3.83
2023-01-19T12:19:23.181Z,3.87
2023-01-19T12:22:30.302Z,3.88
2023-01-19T12:26:10.207Z,3.92
2023-01-19T12:29:19.916Z,3.93
2023-01-19T12:32:39.228Z,3.96
2023-01-19T12:36:07.108Z,4.00
2023-01-19T12:39:21.546Z,3.99
2023-01-19T12:42:25.282Z,3.98
2023-01-19T12:45:37.510Z,3.98
2023-01-19T12:48:42.862Z,3.95
2023-01-19T12:51:47.796Z,3.95
2023-01-19T12:55:13.026Z,3.94
2023-01-19T12:58:28.149Z,3.90
2023-01-19T13:01:32.368Z,3.86
2023-01-19T13:04:40.030Z,3.82
2023-01-19T13:08:35.651Z,3.78
2023-01-19T13:12:20.474Z,3.89
2023-01-19T13:15:54.790Z,4.05
2023-01-19T13:19:11.757Z,4.18
2023-01-19T13:22:51.997Z,4.22
2023-01-19T13:26:09.783Z,4.18
2023-01-19T13:29:35.718Z,4.12
2023-01-19T13:32:43.964Z,4.10
2023-01-19T13:35:53.474Z,3.97
2023-01-19T13:39:00.531Z,3.90
2023-01-19T13:42:08.247Z,3.88
2023-01-19T13:45:33.797Z,3.86
2023-01-19T13:48:41.412Z,3.85
2023-01-19T13:51:47.549Z,3.84
2023-01-19T13:55:04.861Z,3.85
2023-01-19T13:58:36.415Z,3.90
2023-01-19T14:01:53.619Z,3.90
2023-01-19T14:04:57.422Z,3.87
2023-01-19T14:08:07.668Z,3.77
2023-01-19T14:11:20.621Z,3.69
2023-01-19T14:14:31.011Z,3.62
2023-01-19T14:17:35.191Z,3.52
2023-01-19T14:20:52.936Z,3.47
2023-01-19T14:24:16.243Z,3.49
2023-01-19T14:27:28.045Z,3.46
2023-01-19T14:30:33.663Z,3.39
2023-01-19T14:33:48.321Z,3.27
2023-01-19T14:36:53.803Z,3.17
2023-01-19T14:40:11.702Z,3.08
2023-01-19T14:43:22.066Z,3.03
2023-01-19T14:46:29.964Z,2.93
2023-01-19T14:49:40.397Z,2.87
2023-01-19T14:52:50.097Z,2.80
2023-01-19T14:56:11.491Z,2.85
2023-01-19T14:59:16.110Z,2.78
2023-01-19T15:02:21.356Z,2.70
2023-01-19T15:05:25.357Z,2.64
2023-01-19T15:08:37.671Z,2.63
2023-01-19T15:11:41.462Z,2.68
2023-01-19T15:14:46.564Z,2.65
2023-01-19T15:17:56.311Z,2.64
2023-01-19T15:21:06.128Z,2.65
2023-01-19T15:24:17.751Z,2.62
2023-01-19T15:27:23.518Z,2.57
2023-01-19T15:30:29.719Z,2.57
2023-01-19T15:33:32.621Z,2.55
2023-01-19T15:36:38.502Z,2.54
2023-01-19T15:39:43.549Z,2.50
2023-01-19T15:42:52.225Z,2.53
2023-01-19T15:46:02.041Z,2.51
2023-01-19T15:49:06.823Z,2.51
2023-01-19T15:52:09.070Z,2.52
2023-01-19T15:55:12.528Z,2.54
2023-01-19T15:58:35.058Z,2.55
2023-01-19T16:01:43.350Z,2.56
2023-01-19T16:04:50.968Z,2.57
2023-01-19T16:07:53.245Z,2.58
2023-01-19T16:11:10.313Z,2.57
2023-01-19T16:14:12.741Z,2.58
2023-01-19T16:17:15.061Z,2.57
2023-01-19T16:20:29.794Z,2.55
2023-01-19T16:23:32.169Z,2.55
2023-01-19T16:26:39.768Z,2.59
2023-01-19T16:29:51.437Z,2.59
2023-01-19T16:32:58.805Z,2.57
2023-01-19T16:36:19.602Z,2.60
2023-01-19T16:39:31.256Z,2.60
2023-01-19T16:42:36.086Z,2.59
2023-01-19T16:46:00.591Z,2.57
2023-01-19T16:49:05.794Z,2.60
2023-01-19T16:52:13.282Z,2.61
2023-01-19T16:55:20.345Z,2.60
2023-01-19T16:58:26.129Z,2.61
2023-01-19T17:01:39.276Z,2.60
2023-01-19T17:04:45.263Z,2.58
2023-01-19T17:07:55.545Z,2.60
2023-01-19T17:11:02.968Z,2.62
2023-01-19T17:14:15.842Z,2.59
2023-01-19T17:17:23.272Z,2.58
2023-01-19T17:20:26.643Z,2.58
2023-01-19T17:23:30.203Z,2.54
2023-01-19T17:26:38.466Z,2.54
2023-01-19T17:29:47.235Z,2.51
2023-01-19T17:32:52.048Z,2.51
2023-01-19T17:36:03.583Z,2.49
2023-01-19T17:39:08.628Z,2.52
2023-01-19T17:42:22.760Z,2.49
2023-01-19T17:45:28.230Z,2.51
2023-01-19T17:48:32.637Z,2.48
2023-01-19T17:51:37.393Z,2.47
2023-01-19T17:54:40.828Z,2.44
2023-01-19T17:58:08.115Z,2.40
2023-01-19T18:01:16.411Z,2.40
2023-01-19T18:04:24.959Z,2.36
2023-01-19T18:07:29.012Z,2.38
2023-01-19T18:10:31.478Z,2.39
2023-01-19T18:13:36.546Z,2.42
2023-01-19T18:16:38.771Z,2.38
2023-01-19T18:19:43.907Z,2.36
2023-01-19T18:22:46.148Z,2.38
2023-01-19T18:25:49.973Z,2.32
2023-01-19T18:29:00.350Z,2.32
2023-01-19T18:32:07.045Z,2.34
2023-01-19T18:35:09.576Z,2.33
2023-01-19T18:38:14.610Z,2.33
2023-01-19T18:41:23.513Z,2.32
2023-01-19T18:44:28.875Z,2.30
2023-01-19T18:47:36.118Z,2.28
2023-01-19T18:50:38.444Z,2.25
2023-01-19T18:53:45.265Z,2.21
2023-01-19T18:56:53.114Z,2.15
2023-01-19T18:59:58.354Z,2.11
2023-01-19T19:03:10.840Z,2.09
2023-01-19T19:06:20.807Z,2.06
2023-01-19T19:09:28.787Z,2.01
2023-01-19T19:12:36.645Z,2.04
2023-01-19T19:15:41.589Z,2.03
2023-01-19T19:18:51.749Z,2.03
2023-01-19T19:21:54.082Z,2.08
2023-01-19T19:25:03.680Z,2.08
2023-01-19T19:28:11.227Z,2.06
2023-01-19T19:31:22.425Z,2.07
2023-01-19T19:34:27.997Z,2.04
2023-01-19T19:37:38.622Z,2.07
2023-01-19T19:40:41.983Z,2.03
2023-01-19T19:43:45.663Z,2.03
2023-01-19T19:46:52.743Z,2.02
2023-01-19T19:49:59.222Z,2.03
2023-01-19T19:53:08.635Z,2.01
2023-01-19T19:56:15.388Z,2.01
2023-01-19T19:59:20.022Z,2.01
2023-01-19T20:02:24.119Z,1.98
2023-01-19T20:05:33.577Z,1.99
2023-01-19T20:08:44.607Z,1.96
2023-01-19T20:11:50.218Z,1.92
2023-01-19T20:14:52.587Z,1.85
2023-01-19T20:18:01.724Z,1.84
2023-01-19T20:21:38.093Z,1.82
2023-01-19T20:24:43.409Z,1.81
2023-01-19T20:27:45.744Z,1.77
2023-01-19T20:30:51.483Z,1.72
2023-01-19T20:33:59.975Z,1.72
2023-01-19T20:37:04.729Z,1.72
2023-01-19T20:40:07.104Z,1.74
2023-01-19T20:43:09.385Z,1.72
2023-01-19T20:46:14.735Z,1.64
2023-01-19T20:49:23.167Z,1.63
2023-01-19T20:52:25.451Z,1.63
2023-01-19T20:55:27.978Z,1.64
2023-01-19T20:58:37.395Z,1.69
2023-01-19T21:01:44.108Z,1.72
2023-01-19T21:04:48.842Z,1.74
2023-01-19T21:07:51.088Z,1.73
2023-01-19T21:10:59.367Z,1.76
2023-01-19T21:14:02.015Z,1.79
2023-01-19T21:17:07.404Z,1.79
2023-01-19T21:20:13.407Z,1.80
2023-01-19T21:23:16.037Z,1.86
2023-01-19T21:26:22.007Z,1.89
2023-01-19T21:29:25.441Z,1.92
2023-01-19T21:32:30.595Z,1.91
2023-01-19T21:35:32.820Z,1.93
2023-01-19T21:38:38.831Z,1.92
2023-01-19T21:41:43.296Z,1.93
2023-01-19T21:44:48.279Z,1.91
2023-01-19T21:47:50.602Z,1.92
2023-01-19T21:50:59.394Z,1.95
2023-01-19T21:54:03.364Z,1.92
2023-01-19T21:57:08.726Z,2.10
2023-01-19T22:00:13.236Z,2.27
2023-01-19T22:03:16.691Z,2.05
2023-01-19T22:06:18.943Z,1.95
2023-01-19T22:09:22.349Z,1.94
2023-01-19T22:12:25.711Z,1.94
2023-01-19T22:15:31.381Z,1.91
2023-01-19T22:18:38.059Z,1.90
2023-01-19T22:21:42.912Z,1.93
2023-01-19T22:24:52.604Z,1.96
2023-01-19T22:27:55.763Z,1.94
2023-01-19T22:31:12.132Z,1.90
2023-01-19T22:34:20.369Z,1.87
2023-01-19T22:37:22.688Z,1.80
2023-01-19T22:40:24.908Z,1.77
2023-01-19T22:43:31.722Z,1.77
2023-01-19T22:46:38.468Z,1.73
2023-01-19T22:49:42.896Z,1.73
2023-01-19T22:52:55.468Z,1.70
2023-01-19T22:55:57.712Z,1.72
2023-01-19T22:59:05.234Z,1.74
2023-01-19T23:02:14.967Z,1.73
2023-01-19T23:05:19.541Z,1.71
2023-01-19T23:08:22.689Z,1.74
2023-01-19T23:11:27.166Z,1.76
2023-01-19T23:14:39.349Z,1.75
2023-01-19T23:17:45.379Z,1.73
2023-01-19T23:20:47.595Z,1.70
2023-01-19T23:23:57.776Z,1.68
2023-01-19T23:27:02.305Z,1.63
2023-01-19T23:30:12.831Z,1.62
2023-01-19T23:33:17.433Z,1.60
2023-01-19T23:36:21.527Z,1.56
2023-01-19T23:39:26.050Z,1.59
2023-01-19T23:42:28.295Z,1.58
2023-01-19T23:45:31.438Z,1.56
2023-01-19T23:48:34.633Z,1.50
2023-01-19T23:51:38.075Z,1.43
2023-01-19T23:54:43.733Z,1.39
2023-01-19T23:57:50.491Z,1.38
